Impacts TAF Board INFO
FOR SITUATIONAL AWARENESS. NOT TO BE USED FOR FLIGHT PLANNING PURPOSES.
IDs:

KORD - Chicago/O'Hare Intl, IL, US

Issued at 1125 UTC 23 Mar 2017
Updated at 1406 UTC 23 Mar 2017
Potential Impact None Slight Moderate High
Time1351Z 23/15Z 23/16Z 23/17Z 23/18Z 23/19Z 23/20Z 23/21Z 23/22Z 23/23Z 24/00Z 24/01Z 24/02Z 24/03Z
Type OBS PRVL PRVL PRVL PRVL PRVL PRVL PRVL PRVL PRVL PRVL PRVL PRVL PRVL
VIS 10 >6 >6 >6 >6 >6 >6 >6 >6 >6 >6 >6 >6 >6
CIG 100 80 80 80 80 80 80 50 50 50 35 35 35 35
Cover OVC OVC OVC OVC OVC OVC OVC OVC OVC OVC OVC OVC OVC OVC
FltCat VFR VFR VFR VFR VFR VFR VFR VFR VFR VFR VFR VFR VFR VFR
WX -- -- -- -- -- -- -- VCSH VCSH VCSH VCSH VCSH VCSH VCSH
WDir 140 150 150 150 150 150 150 150 150 150 170 170 170 170
WSpd 12 12 12 12 12 12 12 13 13 13 13 13 13 13
WGst -- -- -- -- -- -- -- 20 20 20 -- -- -- --

Raw TAF
KORD 231125Z 2312/2418 15012KT P6SM OVC080
  FM232100 15013G20KT P6SM VCSH SCT030 OVC050
  FM240000 17013KT P6SM VCSH SCT025 OVC035
  FM240500 19013KT P6SM SCT025 BKN150 WS020/21050KT
  FM241400 21015G24KT P6SM BKN150


Raw METAR
KORD 231351Z 14012KT 10SM OVC100 02/M07 A3040 RMK AO2 SLP301 T00171072
KORD 231251Z 13014KT 10SM SCT080 OVC110 01/M08 A3040 RMK AO2 SLP301 T00111078
KORD 231151Z 13011KT 10SM OVC100 01/M07 A3041 RMK AO2 SLP307 T00061072 10006 21017 55001

METAR Board
Radar Display
Forecast Discussion

FOR SITUATIONAL AWARENESS. NOT TO BE USED FOR FLIGHT PLANNING PURPOSES.

Page loaded:  14:06 UTC  |   07:06 AM Pacific  |   08:06 AM Mountain  |   09:06 AM Central  |   10:06 AM Eastern

 

ADVISORIES

FORECASTS

FORECASTS

OBSERVATIONS

USER TOOLS

ABOUT US